Terminal Aerodrome Forecast
Issued by NWS Buffalo, NY

Home | Current Version | Previous Version | Text Only | Print | Product List | Glossary On
Versions: 1 2 3 4 5 6 7 8 9 10 11 12 13 14 15 16 17 18 19 20 21 22 23 24 25 26 27 28
000
FTUS41 KBUF 202300
TAFART
TAF
KART 202333Z 2100/2124 16004KT P6SM OVC045
     FM210800 13004KT 6SM -SHRA OVC040
     FM211300 07007KT 6SM -SHRA OVC030
     FM211900 03010KT 6SM -SHRA OVC020=

USA.gov is the U.S. government's official web portal to all federal, state and local government web resources and services.